sensor_id;sensor_type;location;lat;lon;timestamp;P1;durP1;ratioP1;P2;durP2;ratioP2
54121;SDS011;40029;58.708;50.190;2023-04-15T00:01:59;14.40;;;4.45;;
54121;SDS011;40029;58.708;50.190;2023-04-15T00:04:30;6.80;;;3.58;;
54121;SDS011;40029;58.708;50.190;2023-04-15T00:07:03;10.70;;;4.00;;
54121;SDS011;40029;58.708;50.190;2023-04-15T00:09:34;6.75;;;3.08;;
54121;SDS011;40029;58.708;50.190;2023-04-15T00:12:05;7.35;;;2.75;;
54121;SDS011;40029;58.708;50.190;2023-04-15T00:14:36;19.52;;;5.32;;
54121;SDS011;40029;58.708;50.190;2023-04-15T00:17:07;14.75;;;5.25;;
54121;SDS011;40029;58.708;50.190;2023-04-15T00:19:38;22.73;;;7.38;;
54121;SDS011;40029;58.708;50.190;2023-04-15T00:22:10;16.52;;;5.85;;
54121;SDS011;40029;58.708;50.190;2023-04-15T00:25:00;13.40;;;6.20;;
54121;SDS011;40029;58.708;50.190;2023-04-15T00:27:33;18.50;;;6.10;;
54121;SDS011;40029;58.708;50.190;2023-04-15T00:30:05;17.75;;;7.57;;
54121;SDS011;40029;58.708;50.190;2023-04-15T00:32:36;25.73;;;11.63;;
54121;SDS011;40029;58.708;50.190;2023-04-15T00:35:08;22.55;;;9.15;;
54121;SDS011;40029;58.708;50.190;2023-04-15T00:37:39;31.13;;;13.07;;
54121;SDS011;40029;58.708;50.190;2023-04-15T00:40:28;30.13;;;11.45;;
54121;SDS011;40029;58.708;50.190;2023-04-15T00:43:00;36.33;;;13.80;;
54121;SDS011;40029;58.708;50.190;2023-04-15T00:45:32;35.40;;;12.73;;
54121;SDS011;40029;58.708;50.190;2023-04-15T00:48:03;47.65;;;15.85;;
54121;SDS011;40029;58.708;50.190;2023-04-15T00:50:35;56.80;;;21.67;;
54121;SDS011;40029;58.708;50.190;2023-04-15T00:53:06;25.88;;;9.90;;
54121;SDS011;40029;58.708;50.190;2023-04-15T00:55:37;30.23;;;11.00;;
54121;SDS011;40029;58.708;50.190;2023-04-15T00:58:09;18.80;;;8.13;;
54121;SDS011;40029;58.708;50.190;2023-04-15T01:00:40;15.73;;;6.43;;
54121;SDS011;40029;58.708;50.190;2023-04-15T01:03:14;23.92;;;8.30;;
54121;SDS011;40029;58.708;50.190;2023-04-15T01:05:45;16.23;;;7.40;;
54121;SDS011;40029;58.708;50.190;2023-04-15T01:08:16;18.35;;;7.18;;
54121;SDS011;40029;58.708;50.190;2023-04-15T01:10:47;18.88;;;7.75;;
54121;SDS011;40029;58.708;50.190;2023-04-15T01:13:19;22.20;;;7.32;;
54121;SDS011;40029;58.708;50.190;2023-04-15T01:15:51;12.23;;;5.38;;
54121;SDS011;40029;58.708;50.190;2023-04-15T01:18:23;36.42;;;13.65;;
54121;SDS011;40029;58.708;50.190;2023-04-15T01:20:54;21.08;;;8.32;;
54121;SDS011;40029;58.708;50.190;2023-04-15T01:23:28;23.63;;;10.32;;
54121;SDS011;40029;58.708;50.190;2023-04-15T01:25:59;29.00;;;8.82;;
54121;SDS011;40029;58.708;50.190;2023-04-15T01:28:30;12.13;;;5.30;;
54121;SDS011;40029;58.708;50.190;2023-04-15T01:31:08;16.88;;;5.93;;
54121;SDS011;40029;58.708;50.190;2023-04-15T01:33:42;26.40;;;8.05;;
54121;SDS011;40029;58.708;50.190;2023-04-15T01:36:50;30.75;;;9.15;;
54121;SDS011;40029;58.708;50.190;2023-04-15T01:39:21;20.38;;;7.72;;
54121;SDS011;40029;58.708;50.190;2023-04-15T01:41:52;29.90;;;10.90;;
54121;SDS011;40029;58.708;50.190;2023-04-15T01:44:24;22.60;;;8.35;;
54121;SDS011;40029;58.708;50.190;2023-04-15T01:46:57;23.58;;;7.65;;
54121;SDS011;40029;58.708;50.190;2023-04-15T01:49:31;20.05;;;8.23;;
54121;SDS011;40029;58.708;50.190;2023-04-15T01:52:05;27.67;;;9.65;;
54121;SDS011;40029;58.708;50.190;2023-04-15T01:54:38;27.90;;;11.05;;
54121;SDS011;40029;58.708;50.190;2023-04-15T01:57:10;22.88;;;10.52;;
54121;SDS011;40029;58.708;50.190;2023-04-15T01:59:43;18.85;;;9.00;;
54121;SDS011;40029;58.708;50.190;2023-04-15T02:02:34;27.50;;;8.77;;
54121;SDS011;40029;58.708;50.190;2023-04-15T02:05:06;15.48;;;6.97;;
54121;SDS011;40029;58.708;50.190;2023-04-15T02:07:39;16.00;;;6.82;;
54121;SDS011;40029;58.708;50.190;2023-04-15T02:10:11;16.45;;;7.25;;
54121;SDS011;40029;58.708;50.190;2023-04-15T02:12:44;21.63;;;8.52;;
54121;SDS011;40029;58.708;50.190;2023-04-15T02:15:16;50.08;;;19.80;;
54121;SDS011;40029;58.708;50.190;2023-04-15T02:17:49;95.13;;;34.63;;
54121;SDS011;40029;58.708;50.190;2023-04-15T02:20:23;48.97;;;18.83;;
54121;SDS011;40029;58.708;50.190;2023-04-15T02:22:55;53.42;;;19.00;;
54121;SDS011;40029;58.708;50.190;2023-04-15T02:25:28;46.35;;;16.58;;
54121;SDS011;40029;58.708;50.190;2023-04-15T02:28:00;28.60;;;11.63;;
54121;SDS011;40029;58.708;50.190;2023-04-15T02:30:32;20.73;;;9.10;;
54121;SDS011;40029;58.708;50.190;2023-04-15T02:33:23;22.02;;;8.43;;
54121;SDS011;40029;58.708;50.190;2023-04-15T02:35:55;33.25;;;11.88;;
54121;SDS011;40029;58.708;50.190;2023-04-15T02:38:27;26.27;;;10.48;;
54121;SDS011;40029;58.708;50.190;2023-04-15T02:41:00;20.02;;;9.30;;
54121;SDS011;40029;58.708;50.190;2023-04-15T02:43:33;31.10;;;10.50;;
54121;SDS011;40029;58.708;50.190;2023-04-15T02:46:05;27.58;;;10.82;;
54121;SDS011;40029;58.708;50.190;2023-04-15T02:48:38;30.85;;;11.73;;
54121;SDS011;40029;58.708;50.190;2023-04-15T02:51:14;25.55;;;9.40;;
54121;SDS011;40029;58.708;50.190;2023-04-15T02:53:48;28.88;;;9.55;;
54121;SDS011;40029;58.708;50.190;2023-04-15T02:56:20;23.40;;;9.80;;
54121;SDS011;40029;58.708;50.190;2023-04-15T02:58:54;39.05;;;13.75;;
54121;SDS011;40029;58.708;50.190;2023-04-15T03:01:45;26.70;;;8.63;;
54121;SDS011;40029;58.708;50.190;2023-04-15T03:04:18;38.10;;;12.93;;
54121;SDS011;40029;58.708;50.190;2023-04-15T03:06:50;31.35;;;9.95;;
54121;SDS011;40029;58.708;50.190;2023-04-15T03:09:22;19.92;;;6.97;;
54121;SDS011;40029;58.708;50.190;2023-04-15T03:11:55;15.95;;;6.68;;
54121;SDS011;40029;58.708;50.190;2023-04-15T03:14:46;8.55;;;4.43;;
54121;SDS011;40029;58.708;50.190;2023-04-15T03:17:20;12.67;;;4.30;;
54121;SDS011;40029;58.708;50.190;2023-04-15T03:20:10;22.15;;;8.13;;
54121;SDS011;40029;58.708;50.190;2023-04-15T03:22:43;9.15;;;2.45;;
54121;SDS011;40029;58.708;50.190;2023-04-15T03:25:16;3.92;;;1.70;;
54121;SDS011;40029;58.708;50.190;2023-04-15T03:27:48;8.15;;;2.20;;
54121;SDS011;40029;58.708;50.190;2023-04-15T03:30:22;4.05;;;1.67;;
54121;SDS011;40029;58.708;50.190;2023-04-15T03:32:55;6.95;;;2.00;;
54121;SDS011;40029;58.708;50.190;2023-04-15T03:35:28;2.78;;;1.90;;
54121;SDS011;40029;58.708;50.190;2023-04-15T03:38:00;3.92;;;1.40;;
54121;SDS011;40029;58.708;50.190;2023-04-15T03:40:33;8.93;;;1.98;;
54121;SDS011;40029;58.708;50.190;2023-04-15T03:43:05;1.90;;;0.60;;
54121;SDS011;40029;58.708;50.190;2023-04-15T03:45:38;3.28;;;0.88;;
54121;SDS011;40029;58.708;50.190;2023-04-15T03:48:10;2.40;;;1.10;;
54121;SDS011;40029;58.708;50.190;2023-04-15T03:50:42;4.88;;;2.30;;
54121;SDS011;40029;58.708;50.190;2023-04-15T03:53:14;5.18;;;2.33;;
54121;SDS011;40029;58.708;50.190;2023-04-15T03:55:47;4.57;;;1.48;;
54121;SDS011;40029;58.708;50.190;2023-04-15T03:58:19;7.68;;;2.22;;
54121;SDS011;40029;58.708;50.190;2023-04-15T04:00:52;2.42;;;1.05;;
54121;SDS011;40029;58.708;50.190;2023-04-15T04:03:25;9.55;;;2.28;;
54121;SDS011;40029;58.708;50.190;2023-04-15T04:05:57;8.25;;;2.20;;
54121;SDS011;40029;58.708;50.190;2023-04-15T04:08:30;15.40;;;2.30;;
54121;SDS011;40029;58.708;50.190;2023-04-15T04:11:21;17.98;;;3.45;;
54121;SDS011;40029;58.708;50.190;2023-04-15T04:13:53;4.75;;;1.65;;
54121;SDS011;40029;58.708;50.190;2023-04-15T04:16:25;9.60;;;3.90;;
54121;SDS011;40029;58.708;50.190;2023-04-15T04:18:57;9.82;;;3.08;;
54121;SDS011;40029;58.708;50.190;2023-04-15T04:21:29;9.75;;;2.67;;
54121;SDS011;40029;58.708;50.190;2023-04-15T04:24:04;7.47;;;2.95;;
54121;SDS011;40029;58.708;50.190;2023-04-15T04:26:37;7.95;;;3.50;;
54121;SDS011;40029;58.708;50.190;2023-04-15T04:29:09;25.38;;;5.47;;
54121;SDS011;40029;58.708;50.190;2023-04-15T04:31:41;21.83;;;6.15;;
54121;SDS011;40029;58.708;50.190;2023-04-15T04:34:14;13.38;;;4.47;;
54121;SDS011;40029;58.708;50.190;2023-04-15T04:37:05;3.55;;;2.08;;
54121;SDS011;40029;58.708;50.190;2023-04-15T04:39:38;11.82;;;3.83;;
54121;SDS011;40029;58.708;50.190;2023-04-15T04:42:10;9.02;;;2.55;;
54121;SDS011;40029;58.708;50.190;2023-04-15T04:44:43;12.52;;;3.05;;
54121;SDS011;40029;58.708;50.190;2023-04-15T04:47:15;2.75;;;1.38;;
54121;SDS011;40029;58.708;50.190;2023-04-15T04:49:47;2.80;;;1.42;;
54121;SDS011;40029;58.708;50.190;2023-04-15T04:52:20;5.70;;;1.73;;
54121;SDS011;40029;58.708;50.190;2023-04-15T04:54:52;7.03;;;1.25;;
54121;SDS011;40029;58.708;50.190;2023-04-15T04:57:24;11.02;;;1.70;;
54121;SDS011;40029;58.708;50.190;2023-04-15T04:59:56;17.77;;;1.73;;
54121;SDS011;40029;58.708;50.190;2023-04-15T05:02:29;6.50;;;1.02;;
54121;SDS011;40029;58.708;50.190;2023-04-15T05:05:01;11.35;;;1.75;;
54121;SDS011;40029;58.708;50.190;2023-04-15T05:07:34;6.88;;;1.10;;
54121;SDS011;40029;58.708;50.190;2023-04-15T05:10:06;1.67;;;0.65;;
54121;SDS011;40029;58.708;50.190;2023-04-15T05:12:39;10.02;;;2.13;;
54121;SDS011;40029;58.708;50.190;2023-04-15T05:15:11;7.30;;;1.80;;
54121;SDS011;40029;58.708;50.190;2023-04-15T05:17:43;12.73;;;4.20;;
54121;SDS011;40029;58.708;50.190;2023-04-15T05:20:16;6.18;;;2.30;;
54121;SDS011;40029;58.708;50.190;2023-04-15T05:22:49;8.85;;;1.00;;
54121;SDS011;40029;58.708;50.190;2023-04-15T05:25:21;6.95;;;1.13;;
54121;SDS011;40029;58.708;50.190;2023-04-15T05:27:53;4.57;;;0.90;;
54121;SDS011;40029;58.708;50.190;2023-04-15T05:30:44;1.90;;;0.80;;
54121;SDS011;40029;58.708;50.190;2023-04-15T05:33:16;2.65;;;0.80;;
54121;SDS011;40029;58.708;50.190;2023-04-15T05:35:49;10.07;;;1.38;;
54121;SDS011;40029;58.708;50.190;2023-04-15T05:38:22;4.82;;;1.40;;
54121;SDS011;40029;58.708;50.190;2023-04-15T05:40:54;1.60;;;0.60;;
54121;SDS011;40029;58.708;50.190;2023-04-15T05:43:27;4.60;;;1.08;;
54121;SDS011;40029;58.708;50.190;2023-04-15T05:45:59;4.00;;;0.70;;
54121;SDS011;40029;58.708;50.190;2023-04-15T05:48:31;4.88;;;1.13;;
54121;SDS011;40029;58.708;50.190;2023-04-15T05:51:04;2.35;;;0.80;;
54121;SDS011;40029;58.708;50.190;2023-04-15T05:53:37;2.35;;;0.30;;
54121;SDS011;40029;58.708;50.190;2023-04-15T05:56:09;4.82;;;1.42;;
54121;SDS011;40029;58.708;50.190;2023-04-15T05:58:41;15.10;;;2.17;;
54121;SDS011;40029;58.708;50.190;2023-04-15T06:01:13;6.75;;;1.15;;
54121;SDS011;40029;58.708;50.190;2023-04-15T06:03:46;7.88;;;3.17;;
54121;SDS011;40029;58.708;50.190;2023-04-15T06:06:19;7.57;;;2.00;;
54121;SDS011;40029;58.708;50.190;2023-04-15T06:08:51;7.75;;;3.90;;
54121;SDS011;40029;58.708;50.190;2023-04-15T06:11:24;7.45;;;3.97;;
54121;SDS011;40029;58.708;50.190;2023-04-15T06:13:58;4.05;;;2.40;;
54121;SDS011;40029;58.708;50.190;2023-04-15T06:16:30;3.97;;;1.60;;
54121;SDS011;40029;58.708;50.190;2023-04-15T06:19:02;64.53;;;4.20;;
54121;SDS011;40029;58.708;50.190;2023-04-15T06:21:35;2.72;;;1.40;;
54121;SDS011;40029;58.708;50.190;2023-04-15T06:24:07;1.35;;;0.90;;
54121;SDS011;40029;58.708;50.190;2023-04-15T06:26:39;3.17;;;0.98;;
54121;SDS011;40029;58.708;50.190;2023-04-15T06:29:12;3.28;;;1.17;;
54121;SDS011;40029;58.708;50.190;2023-04-15T06:31:46;5.07;;;1.90;;
54121;SDS011;40029;58.708;50.190;2023-04-15T06:34:18;4.63;;;1.38;;
54121;SDS011;40029;58.708;50.190;2023-04-15T06:36:50;4.78;;;1.90;;
54121;SDS011;40029;58.708;50.190;2023-04-15T06:39:23;15.93;;;1.85;;
54121;SDS011;40029;58.708;50.190;2023-04-15T06:41:55;4.97;;;1.30;;
54121;SDS011;40029;58.708;50.190;2023-04-15T06:44:28;9.30;;;1.33;;
54121;SDS011;40029;58.708;50.190;2023-04-15T06:47:00;6.10;;;1.10;;
54121;SDS011;40029;58.708;50.190;2023-04-15T06:49:32;1.77;;;0.82;;
54121;SDS011;40029;58.708;50.190;2023-04-15T06:52:05;1.85;;;0.85;;
54121;SDS011;40029;58.708;50.190;2023-04-15T06:54:37;7.55;;;1.60;;
54121;SDS011;40029;58.708;50.190;2023-04-15T06:57:10;4.25;;;1.45;;
54121;SDS011;40029;58.708;50.190;2023-04-15T06:59:42;4.32;;;1.60;;
54121;SDS011;40029;58.708;50.190;2023-04-15T07:02:14;4.18;;;1.10;;
54121;SDS011;40029;58.708;50.190;2023-04-15T07:04:47;4.40;;;1.48;;
54121;SDS011;40029;58.708;50.190;2023-04-15T07:07:19;10.50;;;2.58;;
54121;SDS011;40029;58.708;50.190;2023-04-15T07:09:51;0.95;;;0.50;;
54121;SDS011;40029;58.708;50.190;2023-04-15T07:12:24;0.50;;;0.50;;
54121;SDS011;40029;58.708;50.190;2023-04-15T07:14:57;5.05;;;1.67;;
54121;SDS011;40029;58.708;50.190;2023-04-15T07:17:29;6.10;;;3.10;;
54121;SDS011;40029;58.708;50.190;2023-04-15T07:20:01;1.95;;;0.95;;
54121;SDS011;40029;58.708;50.190;2023-04-15T07:22:36;3.55;;;1.23;;
54121;SDS011;40029;58.708;50.190;2023-04-15T07:25:08;11.48;;;2.03;;
54121;SDS011;40029;58.708;50.190;2023-04-15T07:27:42;2.35;;;1.27;;
54121;SDS011;40029;58.708;50.190;2023-04-15T07:30:14;1.77;;;0.68;;
54121;SDS011;40029;58.708;50.190;2023-04-15T07:32:46;1.83;;;0.93;;
54121;SDS011;40029;58.708;50.190;2023-04-15T07:35:19;6.07;;;1.05;;
54121;SDS011;40029;58.708;50.190;2023-04-15T07:37:52;2.80;;;0.98;;
54121;SDS011;40029;58.708;50.190;2023-04-15T07:40:24;2.47;;;1.23;;
54121;SDS011;40029;58.708;50.190;2023-04-15T07:42:57;3.90;;;2.15;;
54121;SDS011;40029;58.708;50.190;2023-04-15T07:45:48;9.43;;;4.13;;
54121;SDS011;40029;58.708;50.190;2023-04-15T07:48:20;3.30;;;1.00;;
54121;SDS011;40029;58.708;50.190;2023-04-15T07:50:52;8.65;;;2.38;;
54121;SDS011;40029;58.708;50.190;2023-04-15T07:53:25;3.75;;;1.27;;
54121;SDS011;40029;58.708;50.190;2023-04-15T07:55:57;4.88;;;1.38;;
54121;SDS011;40029;58.708;50.190;2023-04-15T07:58:29;0.90;;;0.60;;
54121;SDS011;40029;58.708;50.190;2023-04-15T08:01:03;5.43;;;2.03;;
54121;SDS011;40029;58.708;50.190;2023-04-15T08:03:35;4.35;;;1.77;;
54121;SDS011;40029;58.708;50.190;2023-04-15T08:06:08;14.85;;;1.98;;
54121;SDS011;40029;58.708;50.190;2023-04-15T08:08:40;7.55;;;2.30;;
54121;SDS011;40029;58.708;50.190;2023-04-15T08:11:13;8.70;;;1.15;;
54121;SDS011;40029;58.708;50.190;2023-04-15T08:13:46;3.58;;;0.90;;
54121;SDS011;40029;58.708;50.190;2023-04-15T08:16:19;5.75;;;0.60;;
54121;SDS011;40029;58.708;50.190;2023-04-15T08:18:54;0.65;;;0.40;;
54121;SDS011;40029;58.708;50.190;2023-04-15T08:21:27;3.55;;;1.63;;
54121;SDS011;40029;58.708;50.190;2023-04-15T08:24:01;2.63;;;0.87;;
54121;SDS011;40029;58.708;50.190;2023-04-15T08:26:52;7.28;;;0.68;;
54121;SDS011;40029;58.708;50.190;2023-04-15T08:29:24;1.65;;;0.77;;
54121;SDS011;40029;58.708;50.190;2023-04-15T08:32:00;2.90;;;1.60;;
54121;SDS011;40029;58.708;50.190;2023-04-15T08:34:33;1.40;;;0.73;;
54121;SDS011;40029;58.708;50.190;2023-04-15T08:37:05;4.00;;;0.88;;
54121;SDS011;40029;58.708;50.190;2023-04-15T08:39:37;1.98;;;0.90;;
54121;SDS011;40029;58.708;50.190;2023-04-15T08:42:11;16.48;;;1.45;;
54121;SDS011;40029;58.708;50.190;2023-04-15T08:44:47;5.65;;;1.98;;
54121;SDS011;40029;58.708;50.190;2023-04-15T08:47:20;3.00;;;0.85;;
54121;SDS011;40029;58.708;50.190;2023-04-15T08:49:54;1.73;;;1.10;;
54121;SDS011;40029;58.708;50.190;2023-04-15T08:52:29;2.92;;;1.27;;
54121;SDS011;40029;58.708;50.190;2023-04-15T08:55:03;8.43;;;1.50;;
54121;SDS011;40029;58.708;50.190;2023-04-15T08:57:36;5.22;;;0.95;;
54121;SDS011;40029;58.708;50.190;2023-04-15T09:00:10;7.00;;;0.95;;
54121;SDS011;40029;58.708;50.190;2023-04-15T09:02:43;2.65;;;0.80;;
54121;SDS011;40029;58.708;50.190;2023-04-15T09:05:15;0.90;;;0.52;;
54121;SDS011;40029;58.708;50.190;2023-04-15T09:07:49;4.40;;;0.80;;
54121;SDS011;40029;58.708;50.190;2023-04-15T09:10:22;0.82;;;0.60;;
54121;SDS011;40029;58.708;50.190;2023-04-15T09:12:54;4.32;;;1.48;;
54121;SDS011;40029;58.708;50.190;2023-04-15T09:15:27;0.70;;;0.60;;
54121;SDS011;40029;58.708;50.190;2023-04-15T09:20:41;6.13;;;1.50;;
54121;SDS011;40029;58.708;50.190;2023-04-15T09:23:13;3.80;;;1.02;;
54121;SDS011;40029;58.708;50.190;2023-04-15T09:25:46;6.13;;;2.13;;
54121;SDS011;40029;58.708;50.190;2023-04-15T09:28:23;2.25;;;1.40;;
54121;SDS011;40029;58.708;50.190;2023-04-15T09:31:00;3.33;;;1.33;;
54121;SDS011;40029;58.708;50.190;2023-04-15T09:33:33;1.55;;;0.68;;
54121;SDS011;40029;58.708;50.190;2023-04-15T09:36:05;3.80;;;1.10;;
54121;SDS011;40029;58.708;50.190;2023-04-15T09:38:49;0.98;;;0.60;;
54121;SDS011;40029;58.708;50.190;2023-04-15T09:41:26;3.38;;;1.73;;
54121;SDS011;40029;58.708;50.190;2023-04-15T09:43:59;3.33;;;2.03;;
54121;SDS011;40029;58.708;50.190;2023-04-15T09:46:41;5.20;;;2.30;;
54121;SDS011;40029;58.708;50.190;2023-04-15T09:49:14;5.32;;;2.90;;
54121;SDS011;40029;58.708;50.190;2023-04-15T09:51:46;2.25;;;1.00;;
54121;SDS011;40029;58.708;50.190;2023-04-15T09:54:20;3.90;;;1.70;;
54121;SDS011;40029;58.708;50.190;2023-04-15T09:56:52;3.28;;;0.90;;
54121;SDS011;40029;58.708;50.190;2023-04-15T09:59:24;3.40;;;2.05;;
54121;SDS011;40029;58.708;50.190;2023-04-15T10:01:57;2.85;;;0.90;;
54121;SDS011;40029;58.708;50.190;2023-04-15T10:04:29;5.07;;;1.45;;
54121;SDS011;40029;58.708;50.190;2023-04-15T10:07:07;16.98;;;6.35;;
54121;SDS011;40029;58.708;50.190;2023-04-15T10:09:40;8.32;;;3.72;;
54121;SDS011;40029;58.708;50.190;2023-04-15T10:12:16;3.45;;;2.05;;
54121;SDS011;40029;58.708;50.190;2023-04-15T10:14:54;2.85;;;1.83;;
54121;SDS011;40029;58.708;50.190;2023-04-15T10:17:31;5.88;;;1.30;;
54121;SDS011;40029;58.708;50.190;2023-04-15T10:20:06;3.75;;;1.88;;
54121;SDS011;40029;58.708;50.190;2023-04-15T10:22:40;3.97;;;0.60;;
54121;SDS011;40029;58.708;50.190;2023-04-15T10:25:14;3.78;;;1.80;;
54121;SDS011;40029;58.708;50.190;2023-04-15T10:27:47;3.83;;;1.40;;
54121;SDS011;40029;58.708;50.190;2023-04-15T10:30:22;4.65;;;0.50;;
54121;SDS011;40029;58.708;50.190;2023-04-15T10:32:55;2.78;;;0.95;;
54121;SDS011;40029;58.708;50.190;2023-04-15T10:35:28;5.75;;;1.08;;
54121;SDS011;40029;58.708;50.190;2023-04-15T10:38:22;1.45;;;1.00;;
54121;SDS011;40029;58.708;50.190;2023-04-15T10:41:13;5.80;;;1.60;;
54121;SDS011;40029;58.708;50.190;2023-04-15T10:43:49;4.07;;;2.42;;
54121;SDS011;40029;58.708;50.190;2023-04-15T10:46:41;3.17;;;1.88;;
54121;SDS011;40029;58.708;50.190;2023-04-15T10:49:16;9.10;;;3.08;;
54121;SDS011;40029;58.708;50.190;2023-04-15T10:51:57;8.85;;;3.60;;
54121;SDS011;40029;58.708;50.190;2023-04-15T10:54:32;2.13;;;0.93;;
54121;SDS011;40029;58.708;50.190;2023-04-15T10:57:07;2.20;;;1.20;;
54121;SDS011;40029;58.708;50.190;2023-04-15T11:02:51;1.42;;;0.80;;
54121;SDS011;40029;58.708;50.190;2023-04-15T11:08:51;14.45;;;1.42;;
54121;SDS011;40029;58.708;50.190;2023-04-15T11:14:40;4.78;;;1.73;;
54121;SDS011;40029;58.708;50.190;2023-04-15T11:17:14;6.07;;;1.27;;
54121;SDS011;40029;58.708;50.190;2023-04-15T11:19:58;5.63;;;1.45;;
54121;SDS011;40029;58.708;50.190;2023-04-15T11:22:31;2.95;;;1.10;;
54121;SDS011;40029;58.708;50.190;2023-04-15T11:25:03;5.70;;;2.72;;
54121;SDS011;40029;58.708;50.190;2023-04-15T11:27:36;16.35;;;2.03;;
54121;SDS011;40029;58.708;50.190;2023-04-15T11:30:18;5.97;;;1.10;;
54121;SDS011;40029;58.708;50.190;2023-04-15T11:33:13;4.18;;;2.08;;
54121;SDS011;40029;58.708;50.190;2023-04-15T11:35:46;5.13;;;1.77;;
54121;SDS011;40029;58.708;50.190;2023-04-15T11:38:18;2.15;;;0.60;;
54121;SDS011;40029;58.708;50.190;2023-04-15T11:40:50;6.20;;;0.90;;
54121;SDS011;40029;58.708;50.190;2023-04-15T11:43:23;5.60;;;1.50;;
54121;SDS011;40029;58.708;50.190;2023-04-15T11:45:59;5.15;;;1.00;;
54121;SDS011;40029;58.708;50.190;2023-04-15T11:48:34;13.32;;;1.58;;
54121;SDS011;40029;58.708;50.190;2023-04-15T11:51:07;6.78;;;2.30;;
54121;SDS011;40029;58.708;50.190;2023-04-15T11:53:45;5.90;;;1.92;;
54121;SDS011;40029;58.708;50.190;2023-04-15T11:56:24;9.15;;;2.55;;
54121;SDS011;40029;58.708;50.190;2023-04-15T11:58:59;6.90;;;1.42;;
54121;SDS011;40029;58.708;50.190;2023-04-15T12:01:35;2.10;;;1.10;;
54121;SDS011;40029;58.708;50.190;2023-04-15T12:04:13;4.88;;;1.77;;
54121;SDS011;40029;58.708;50.190;2023-04-15T12:06:47;5.03;;;1.88;;
54121;SDS011;40029;58.708;50.190;2023-04-15T12:09:18;7.25;;;3.10;;
54121;SDS011;40029;58.708;50.190;2023-04-15T12:11:51;6.07;;;3.78;;
54121;SDS011;40029;58.708;50.190;2023-04-15T12:14:45;5.50;;;3.10;;
54121;SDS011;40029;58.708;50.190;2023-04-15T12:17:16;8.88;;;2.85;;
54121;SDS011;40029;58.708;50.190;2023-04-15T12:19:48;11.05;;;5.28;;
54121;SDS011;40029;58.708;50.190;2023-04-15T12:22:25;11.27;;;4.72;;
54121;SDS011;40029;58.708;50.190;2023-04-15T12:24:56;4.47;;;2.30;;
54121;SDS011;40029;58.708;50.190;2023-04-15T12:27:27;9.48;;;2.13;;
54121;SDS011;40029;58.708;50.190;2023-04-15T12:30:02;7.35;;;1.92;;
54121;SDS011;40029;58.708;50.190;2023-04-15T12:32:36;9.10;;;4.00;;
54121;SDS011;40029;58.708;50.190;2023-04-15T12:35:07;14.75;;;3.97;;
54121;SDS011;40029;58.708;50.190;2023-04-15T12:37:38;4.45;;;1.48;;
54121;SDS011;40029;58.708;50.190;2023-04-15T12:40:10;2.92;;;1.77;;
54121;SDS011;40029;58.708;50.190;2023-04-15T12:42:41;8.25;;;2.17;;
54121;SDS011;40029;58.708;50.190;2023-04-15T12:45:12;8.15;;;1.70;;
54121;SDS011;40029;58.708;50.190;2023-04-15T12:47:43;2.40;;;1.40;;
54121;SDS011;40029;58.708;50.190;2023-04-15T12:50:15;30.45;;;4.05;;
54121;SDS011;40029;58.708;50.190;2023-04-15T12:52:47;3.70;;;2.03;;
54121;SDS011;40029;58.708;50.190;2023-04-15T12:55:36;9.55;;;3.60;;
54121;SDS011;40029;58.708;50.190;2023-04-15T12:58:09;6.22;;;3.00;;
54121;SDS011;40029;58.708;50.190;2023-04-15T13:00:41;5.90;;;3.00;;
54121;SDS011;40029;58.708;50.190;2023-04-15T13:03:12;3.58;;;1.55;;
54121;SDS011;40029;58.708;50.190;2023-04-15T13:05:43;11.35;;;3.72;;
54121;SDS011;40029;58.708;50.190;2023-04-15T13:08:15;15.48;;;2.78;;
54121;SDS011;40029;58.708;50.190;2023-04-15T13:10:46;3.70;;;1.13;;
54121;SDS011;40029;58.708;50.190;2023-04-15T13:13:17;11.75;;;3.05;;
54121;SDS011;40029;58.708;50.190;2023-04-15T13:15:48;4.15;;;2.03;;
54121;SDS011;40029;58.708;50.190;2023-04-15T13:18:20;6.60;;;1.25;;
54121;SDS011;40029;58.708;50.190;2023-04-15T13:20:53;5.95;;;2.28;;
54121;SDS011;40029;58.708;50.190;2023-04-15T13:23:25;5.50;;;2.00;;
54121;SDS011;40029;58.708;50.190;2023-04-15T13:25:57;5.95;;;2.17;;
54121;SDS011;40029;58.708;50.190;2023-04-15T13:28:28;3.90;;;1.75;;
54121;SDS011;40029;58.708;50.190;2023-04-15T13:30:59;4.03;;;2.30;;
54121;SDS011;40029;58.708;50.190;2023-04-15T13:33:30;28.40;;;4.30;;
54121;SDS011;40029;58.708;50.190;2023-04-15T13:36:02;21.40;;;2.58;;
54121;SDS011;40029;58.708;50.190;2023-04-15T13:38:33;7.95;;;3.45;;
54121;SDS011;40029;58.708;50.190;2023-04-15T13:41:22;5.35;;;2.15;;
54121;SDS011;40029;58.708;50.190;2023-04-15T13:43:53;13.07;;;2.30;;
54121;SDS011;40029;58.708;50.190;2023-04-15T13:46:25;5.30;;;1.88;;
54121;SDS011;40029;58.708;50.190;2023-04-15T13:48:56;10.25;;;3.75;;
54121;SDS011;40029;58.708;50.190;2023-04-15T13:51:27;20.08;;;6.40;;
54121;SDS011;40029;58.708;50.190;2023-04-15T13:53:59;13.57;;;4.72;;
54121;SDS011;40029;58.708;50.190;2023-04-15T13:56:30;7.07;;;3.53;;
54121;SDS011;40029;58.708;50.190;2023-04-15T13:59:19;7.60;;;3.72;;
54121;SDS011;40029;58.708;50.190;2023-04-15T14:01:51;10.75;;;3.60;;
54121;SDS011;40029;58.708;50.190;2023-04-15T14:04:41;7.45;;;2.60;;
54121;SDS011;40029;58.708;50.190;2023-04-15T14:07:12;8.00;;;2.30;;
54121;SDS011;40029;58.708;50.190;2023-04-15T14:09:43;2.95;;;1.83;;
54121;SDS011;40029;58.708;50.190;2023-04-15T14:12:14;2.85;;;1.80;;
54121;SDS011;40029;58.708;50.190;2023-04-15T14:15:03;15.35;;;2.55;;
54121;SDS011;40029;58.708;50.190;2023-04-15T14:17:36;8.98;;;2.15;;
54121;SDS011;40029;58.708;50.190;2023-04-15T14:20:07;9.05;;;2.05;;
54121;SDS011;40029;58.708;50.190;2023-04-15T14:22:39;11.35;;;3.20;;
54121;SDS011;40029;58.708;50.190;2023-04-15T14:25:10;7.03;;;2.25;;
54121;SDS011;40029;58.708;50.190;2023-04-15T14:27:41;9.55;;;2.75;;
54121;SDS011;40029;58.708;50.190;2023-04-15T14:30:12;7.45;;;2.63;;
54121;SDS011;40029;58.708;50.190;2023-04-15T14:32:43;7.80;;;3.65;;
54121;SDS011;40029;58.708;50.190;2023-04-15T14:35:15;9.88;;;2.65;;
54121;SDS011;40029;58.708;50.190;2023-04-15T14:37:46;10.25;;;3.95;;
54121;SDS011;40029;58.708;50.190;2023-04-15T14:40:17;19.42;;;5.47;;
54121;SDS011;40029;58.708;50.190;2023-04-15T14:42:50;7.70;;;4.10;;
54121;SDS011;40029;58.708;50.190;2023-04-15T14:45:21;19.23;;;6.55;;
54121;SDS011;40029;58.708;50.190;2023-04-15T14:47:52;7.00;;;3.40;;
54121;SDS011;40029;58.708;50.190;2023-04-15T14:50:23;14.25;;;6.13;;
54121;SDS011;40029;58.708;50.190;2023-04-15T14:53:13;24.33;;;5.40;;
54121;SDS011;40029;58.708;50.190;2023-04-15T14:55:45;14.07;;;5.18;;
54121;SDS011;40029;58.708;50.190;2023-04-15T14:58:16;14.85;;;6.43;;
54121;SDS011;40029;58.708;50.190;2023-04-15T15:00:47;14.30;;;6.05;;
54121;SDS011;40029;58.708;50.190;2023-04-15T15:03:18;12.63;;;6.13;;
54121;SDS011;40029;58.708;50.190;2023-04-15T15:05:49;9.82;;;4.93;;
54121;SDS011;40029;58.708;50.190;2023-04-15T15:08:21;14.68;;;6.75;;
54121;SDS011;40029;58.708;50.190;2023-04-15T15:10:52;7.68;;;3.67;;
54121;SDS011;40029;58.708;50.190;2023-04-15T15:13:23;5.28;;;2.92;;
54121;SDS011;40029;58.708;50.190;2023-04-15T15:15:55;6.25;;;3.25;;
54121;SDS011;40029;58.708;50.190;2023-04-15T15:18:26;8.25;;;3.75;;
54121;SDS011;40029;58.708;50.190;2023-04-15T15:20:57;12.68;;;4.03;;